createdAt,value
2018-08-31T00:01:10.493Z,15.30
2018-08-31T00:04:53.990Z,15.37
2018-08-31T00:07:34.659Z,18.83
2018-08-31T00:10:19.915Z,15.83
2018-08-31T00:12:48.422Z,18.63
2018-08-31T00:15:16.959Z,23.87
2018-08-31T00:17:45.478Z,22.57
2018-08-31T00:20:14.978Z,21.03
2018-08-31T00:22:43.475Z,18.87
2018-08-31T00:25:23.356Z,16.60
2018-08-31T00:28:03.131Z,15.00
2018-08-31T00:30:42.804Z,19.90
2018-08-31T00:33:27.532Z,16.53
2018-08-31T00:38:13.620Z,27.90
2018-08-31T00:45:00.403Z,21.87
2018-08-31T00:47:29.064Z,17.50
2018-08-31T00:49:57.581Z,15.80
2018-08-31T00:52:26.060Z,18.80
2018-08-31T00:54:54.592Z,17.87
2018-08-31T00:57:23.084Z,21.67
2018-08-31T00:59:51.992Z,17.63
2018-08-31T01:02:20.528Z,15.33
2018-08-31T01:04:49.063Z,18.20
2018-08-31T01:07:17.583Z,15.53
2018-08-31T01:09:46.094Z,18.83
2018-08-31T01:12:14.612Z,26.60
2018-08-31T01:14:43.132Z,15.60
2018-08-31T01:17:11.605Z,15.63
2018-08-31T01:19:40.111Z,26.37
2018-08-31T01:22:08.665Z,23.80
2018-08-31T01:24:37.216Z,16.67
2018-08-31T01:27:05.781Z,10.70
2018-08-31T01:29:34.308Z,21.30
2018-08-31T01:32:02.888Z,22.73
2018-08-31T01:34:31.395Z,11.97
2018-08-31T01:36:59.892Z,15.73
2018-08-31T01:39:28.447Z,16.43
2018-08-31T01:41:56.964Z,15.17
2018-08-31T01:44:25.474Z,19.50
2018-08-31T01:46:53.991Z,13.13
2018-08-31T01:49:22.532Z,20.73
2018-08-31T01:51:51.108Z,16.13
2018-08-31T01:54:19.659Z,14.23
2018-08-31T01:56:48.195Z,17.30
2018-08-31T01:59:16.689Z,21.53
2018-08-31T02:01:45.172Z,24.13
2018-08-31T02:04:13.744Z,15.70
2018-08-31T02:06:42.296Z,16.73
2018-08-31T02:09:16.127Z,17.07
2018-08-31T02:11:44.671Z,17.57
2018-08-31T02:14:13.203Z,17.40
2018-08-31T02:16:41.760Z,15.37
2018-08-31T02:19:10.272Z,14.17
2018-08-31T02:21:38.808Z,15.60
2018-08-31T02:24:07.624Z,14.00
2018-08-31T02:26:36.232Z,12.73
2018-08-31T02:29:04.984Z,19.37
2018-08-31T02:31:33.544Z,18.60
2018-08-31T02:34:02.162Z,13.43
2018-08-31T02:36:30.687Z,15.70
2018-08-31T02:38:59.257Z,14.63
2018-08-31T02:41:27.776Z,13.30
2018-08-31T02:43:56.327Z,16.33
2018-08-31T02:46:24.854Z,14.83
2018-08-31T02:48:53.500Z,15.97
2018-08-31T02:51:22.120Z,15.17
2018-08-31T02:53:50.637Z,14.90
2018-08-31T02:56:19.111Z,17.13
2018-08-31T02:58:47.604Z,19.83
2018-08-31T03:01:16.171Z,15.03
2018-08-31T03:03:44.688Z,13.03
2018-08-31T03:06:13.203Z,18.57
2018-08-31T03:08:41.726Z,25.57
2018-08-31T03:11:10.258Z,15.33
2018-08-31T03:13:38.775Z,16.10
2018-08-31T03:16:07.327Z,12.47
2018-08-31T03:18:35.895Z,13.50
2018-08-31T03:21:04.414Z,16.13
2018-08-31T03:23:32.897Z,18.03
2018-08-31T03:26:01.393Z,12.50
2018-08-31T03:28:29.945Z,10.27
2018-08-31T03:30:58.457Z,17.93
2018-08-31T03:33:26.991Z,14.97
2018-08-31T03:35:55.468Z,15.17
2018-08-31T03:38:24.025Z,16.70
2018-08-31T03:40:52.532Z,17.47
2018-08-31T03:43:21.040Z,16.23
2018-08-31T03:45:49.541Z,23.03
2018-08-31T03:48:18.040Z,25.40
2018-08-31T03:50:46.571Z,20.20
2018-08-31T03:53:15.121Z,19.00
2018-08-31T03:55:43.632Z,20.50
2018-08-31T03:58:12.156Z,17.10
2018-08-31T04:00:40.676Z,20.10
2018-08-31T04:03:09.182Z,17.07
2018-08-31T04:05:37.695Z,18.20
2018-08-31T04:08:06.211Z,13.63
2018-08-31T04:10:34.759Z,16.53
2018-08-31T04:13:03.295Z,17.80
2018-08-31T04:15:31.847Z,19.20
2018-08-31T04:18:00.370Z,16.37
2018-08-31T04:20:28.887Z,20.10
2018-08-31T04:22:57.383Z,20.73
2018-08-31T04:25:25.904Z,13.53
2018-08-31T04:27:54.449Z,17.67
2018-08-31T04:30:22.976Z,16.47
2018-08-31T04:32:51.568Z,20.17
2018-08-31T04:35:20.108Z,17.50
2018-08-31T04:37:48.693Z,17.50
2018-08-31T04:40:17.251Z,22.50
2018-08-31T04:42:45.797Z,22.03
2018-08-31T04:45:14.296Z,16.27
2018-08-31T04:47:42.811Z,16.97
2018-08-31T04:50:11.381Z,17.70
2018-08-31T04:52:39.860Z,12.80
2018-08-31T04:55:08.434Z,19.97
2018-08-31T04:57:36.916Z,18.13
2018-08-31T05:00:06.267Z,18.00
2018-08-31T05:02:36.524Z,18.23
2018-08-31T05:05:05.189Z,19.70
2018-08-31T05:07:33.737Z,19.90
2018-08-31T05:10:02.244Z,17.73
2018-08-31T05:12:30.824Z,19.80
2018-08-31T05:14:59.309Z,23.50
2018-08-31T05:17:27.940Z,17.13
2018-08-31T05:19:56.444Z,23.40
2018-08-31T05:22:25.017Z,22.73
2018-08-31T05:24:53.519Z,22.73
2018-08-31T05:27:22.043Z,20.53
2018-08-31T05:29:50.556Z,21.13
2018-08-31T05:32:19.081Z,23.13
2018-08-31T05:34:47.667Z,25.40
2018-08-31T05:37:16.180Z,21.50
2018-08-31T05:39:44.683Z,22.73
2018-08-31T05:42:13.212Z,22.03
2018-08-31T05:44:41.744Z,29.90
2018-08-31T05:47:10.224Z,31.97
2018-08-31T05:49:38.734Z,24.63
2018-08-31T05:52:07.223Z,24.00
2018-08-31T05:54:35.735Z,25.27
2018-08-31T05:57:04.285Z,24.33
2018-08-31T05:59:32.776Z,22.83
2018-08-31T06:02:01.341Z,22.07
2018-08-31T06:04:29.847Z,29.97
2018-08-31T06:06:58.399Z,18.00
2018-08-31T06:09:26.915Z,27.43
2018-08-31T06:11:55.460Z,23.60
2018-08-31T06:14:24.004Z,22.17
2018-08-31T06:16:52.538Z,20.80
2018-08-31T06:19:21.065Z,24.20
2018-08-31T06:21:49.594Z,29.30
2018-08-31T06:24:18.233Z,25.73
2018-08-31T06:26:46.780Z,26.60
2018-08-31T06:29:18.077Z,30.10
2018-08-31T06:31:54.052Z,27.57
2018-08-31T06:34:22.536Z,35.30
2018-08-31T06:36:51.063Z,27.57
2018-08-31T06:39:19.569Z,29.90
2018-08-31T06:41:48.084Z,25.93
2018-08-31T06:44:16.591Z,25.83
2018-08-31T06:46:45.098Z,27.37
2018-08-31T06:49:13.617Z,28.67
2018-08-31T06:51:43.000Z,34.10
2018-08-31T06:54:11.512Z,32.20
2018-08-31T06:56:40.021Z,29.97
2018-08-31T06:59:08.604Z,32.60
2018-08-31T07:01:37.157Z,32.37
2018-08-31T07:04:05.644Z,30.23
2018-08-31T07:06:34.145Z,43.13
2018-08-31T07:09:02.709Z,33.20
2018-08-31T07:11:31.223Z,27.47
2018-08-31T07:13:59.766Z,25.03
2018-08-31T07:16:28.284Z,22.63
2018-08-31T07:18:56.797Z,39.20
2018-08-31T07:21:25.317Z,40.57
2018-08-31T07:23:55.646Z,38.93
2018-08-31T07:26:24.686Z,46.90
2018-08-31T07:28:53.199Z,42.60
2018-08-31T07:31:21.777Z,36.63
2018-08-31T07:33:50.920Z,41.53
2018-08-31T07:36:19.518Z,47.77
2018-08-31T07:38:48.003Z,48.73
2018-08-31T07:41:20.362Z,39.77
2018-08-31T07:43:48.889Z,33.77
2018-08-31T07:46:17.458Z,36.33
2018-08-31T07:48:45.948Z,39.80
2018-08-31T07:51:14.503Z,41.43
2018-08-31T07:53:43.092Z,43.97
2018-08-31T07:56:11.580Z,46.40
2018-08-31T07:58:40.159Z,38.53
2018-08-31T08:01:08.864Z,38.73
2018-08-31T08:03:37.436Z,41.70
2018-08-31T08:06:06.079Z,37.60
2018-08-31T08:08:34.619Z,43.73
2018-08-31T08:11:03.169Z,53.10
2018-08-31T08:13:31.713Z,52.30
2018-08-31T08:16:00.192Z,53.50
2018-08-31T08:18:28.742Z,50.53
2018-08-31T08:21:03.680Z,46.07
2018-08-31T08:23:32.212Z,41.03
2018-08-31T08:26:00.700Z,45.90
2018-08-31T08:28:29.264Z,49.57
2018-08-31T08:30:57.812Z,46.63
2018-08-31T08:33:26.331Z,45.93
2018-08-31T08:35:54.888Z,48.53
2018-08-31T08:38:23.400Z,45.00
2018-08-31T08:40:51.940Z,53.10
2018-08-31T08:43:20.459Z,47.47
2018-08-31T08:45:49.025Z,39.80
2018-08-31T08:48:17.610Z,39.63
2018-08-31T08:50:46.081Z,42.37
2018-08-31T08:53:14.575Z,43.80
2018-08-31T08:55:43.099Z,51.13
2018-08-31T08:58:11.709Z,52.93
2018-08-31T09:00:40.251Z,47.23
2018-08-31T09:03:08.801Z,41.67
2018-08-31T09:05:37.375Z,39.37
2018-08-31T09:08:05.916Z,39.47
2018-08-31T09:10:34.494Z,46.53
2018-08-31T09:13:03.028Z,57.77
2018-08-31T09:15:31.603Z,49.27
2018-08-31T09:18:00.112Z,52.90
2018-08-31T09:20:28.654Z,47.83
2018-08-31T09:22:57.182Z,50.40
2018-08-31T09:25:25.715Z,40.53
2018-08-31T09:27:54.283Z,48.77
2018-08-31T09:30:28.221Z,50.63
2018-08-31T09:32:56.795Z,44.03
2018-08-31T09:35:25.340Z,41.43
2018-08-31T09:37:53.867Z,35.97
2018-08-31T09:40:22.400Z,34.23
2018-08-31T09:42:50.900Z,39.53
2018-08-31T09:45:19.440Z,36.87
2018-08-31T09:47:47.994Z,41.33
2018-08-31T09:50:16.529Z,33.67
2018-08-31T09:52:45.065Z,39.10
2018-08-31T09:55:13.589Z,38.27
2018-08-31T09:57:42.132Z,39.20
2018-08-31T10:00:10.678Z,45.00
2018-08-31T10:02:44.389Z,38.10
2018-08-31T10:05:12.890Z,41.80
2018-08-31T10:07:41.439Z,41.43
2018-08-31T10:10:09.980Z,40.60
2018-08-31T10:12:38.552Z,37.60
2018-08-31T10:15:07.148Z,42.90
2018-08-31T10:17:35.648Z,31.83
2018-08-31T10:20:04.230Z,38.70
2018-08-31T10:22:32.764Z,34.80
2018-08-31T10:25:01.293Z,29.20
2018-08-31T10:27:29.825Z,38.97
2018-08-31T10:29:58.343Z,38.93
2018-08-31T10:32:26.866Z,31.70
2018-08-31T10:34:55.392Z,32.70
2018-08-31T10:37:23.916Z,34.77
2018-08-31T10:39:52.402Z,26.73
2018-08-31T10:42:20.923Z,30.27
2018-08-31T10:44:49.433Z,26.40
2018-08-31T10:47:17.963Z,31.90
2018-08-31T10:49:46.463Z,30.50
2018-08-31T10:52:15.055Z,27.17
2018-08-31T10:54:43.591Z,25.37
2018-08-31T10:57:12.144Z,27.93
2018-08-31T10:59:40.730Z,39.97
2018-08-31T11:02:09.209Z,26.33
2018-08-31T11:04:37.703Z,23.47
2018-08-31T11:07:06.204Z,33.53
2018-08-31T11:09:34.833Z,27.33
2018-08-31T11:12:03.337Z,30.07
2018-08-31T11:14:31.850Z,34.73
2018-08-31T11:17:00.329Z,28.30
2018-08-31T11:19:28.826Z,29.73
2018-08-31T11:21:57.366Z,27.53
2018-08-31T11:24:25.913Z,27.63
2018-08-31T11:26:54.447Z,26.03
2018-08-31T11:29:22.928Z,31.10
2018-08-31T11:31:51.462Z,29.93
2018-08-31T11:34:19.956Z,26.57
2018-08-31T11:36:48.488Z,20.60
2018-08-31T11:39:17.008Z,25.17
2018-08-31T11:41:45.512Z,24.30
2018-08-31T11:44:14.012Z,25.57
2018-08-31T11:46:44.905Z,24.13
2018-08-31T11:49:13.408Z,24.97
2018-08-31T11:51:42.016Z,31.00
2018-08-31T11:54:10.508Z,25.30
2018-08-31T11:56:39.015Z,30.03
2018-08-31T11:59:07.539Z,22.23
2018-08-31T12:01:36.098Z,19.10
2018-08-31T12:04:04.640Z,20.20
2018-08-31T12:06:33.123Z,24.03
2018-08-31T12:09:01.643Z,23.60
2018-08-31T12:11:30.136Z,22.40
2018-08-31T12:13:58.697Z,21.50
2018-08-31T12:16:27.221Z,25.50
2018-08-31T12:18:55.768Z,23.90
2018-08-31T12:21:24.295Z,21.10
2018-08-31T12:23:52.848Z,25.83
2018-08-31T12:26:21.376Z,18.00
2018-08-31T12:28:49.916Z,18.80
2018-08-31T12:31:18.445Z,19.50
2018-08-31T12:33:47.960Z,18.33
2018-08-31T12:36:16.552Z,17.77
2018-08-31T12:38:45.312Z,19.33
2018-08-31T12:41:13.895Z,17.63
2018-08-31T12:43:42.751Z,16.17
2018-08-31T12:46:11.269Z,19.37
2018-08-31T12:48:39.955Z,15.37
2018-08-31T12:51:08.478Z,18.80
2018-08-31T12:53:37.039Z,14.10
2018-08-31T12:56:05.616Z,16.70
2018-08-31T12:58:34.457Z,16.27
2018-08-31T13:01:03.669Z,17.87
2018-08-31T13:03:32.233Z,19.63
2018-08-31T13:06:00.739Z,22.20
2018-08-31T13:08:29.349Z,18.20
2018-08-31T13:10:57.916Z,21.47
2018-08-31T13:13:27.560Z,18.73
2018-08-31T13:15:57.420Z,20.73
2018-08-31T13:18:27.917Z,19.13
2018-08-31T13:20:57.511Z,18.63
2018-08-31T13:23:26.107Z,17.07
2018-08-31T13:25:54.603Z,19.80
2018-08-31T13:28:25.561Z,21.20
2018-08-31T13:30:54.972Z,19.50
2018-08-31T13:33:24.307Z,21.50
2018-08-31T13:35:52.915Z,19.07
2018-08-31T13:38:21.489Z,17.77
2018-08-31T13:40:49.978Z,18.40
2018-08-31T13:43:21.106Z,21.80
2018-08-31T13:45:49.611Z,22.40
2018-08-31T13:48:19.229Z,18.33
2018-08-31T13:50:49.069Z,19.03
2018-08-31T13:53:19.533Z,22.00
2018-08-31T13:55:48.078Z,25.63
2018-08-31T13:58:17.577Z,17.97
2018-08-31T14:00:47.176Z,26.17
2018-08-31T14:03:17.001Z,23.10
2018-08-31T14:05:45.576Z,26.80
2018-08-31T14:08:15.223Z,18.13
2018-08-31T14:10:43.785Z,20.30
2018-08-31T14:13:12.410Z,23.97
2018-08-31T14:15:42.033Z,20.67
2018-08-31T14:18:12.709Z,22.37
2018-08-31T14:20:43.421Z,21.40
2018-08-31T14:23:11.947Z,24.70
2018-08-31T14:25:42.046Z,19.50
2018-08-31T14:28:10.748Z,21.67
2018-08-31T14:30:39.259Z,19.53
2018-08-31T14:33:07.743Z,20.97
2018-08-31T14:35:36.262Z,20.53
2018-08-31T14:38:04.848Z,22.80
2018-08-31T14:40:33.335Z,22.67
2018-08-31T14:43:01.836Z,21.00
2018-08-31T14:45:30.364Z,21.87
2018-08-31T14:47:58.849Z,21.00
2018-08-31T14:50:27.430Z,22.70
2018-08-31T14:52:55.977Z,24.87
2018-08-31T14:55:24.540Z,16.97
2018-08-31T14:57:53.050Z,20.40
2018-08-31T15:00:21.592Z,20.30
2018-08-31T15:02:50.121Z,21.60
2018-08-31T15:05:18.652Z,19.10
2018-08-31T15:07:47.157Z,21.07
2018-08-31T15:10:15.720Z,17.77
2018-08-31T15:12:44.968Z,26.17
2018-08-31T15:15:13.472Z,18.87
2018-08-31T15:17:42.088Z,19.17
2018-08-31T15:20:10.736Z,18.57
2018-08-31T15:22:39.579Z,22.10
2018-08-31T15:25:08.240Z,20.40
2018-08-31T15:27:36.759Z,20.73
2018-08-31T15:30:06.979Z,19.27
2018-08-31T15:32:35.565Z,16.93
2018-08-31T15:35:04.308Z,20.07
2018-08-31T15:37:33.120Z,21.30
2018-08-31T15:40:01.663Z,20.93
2018-08-31T15:42:30.204Z,23.97
2018-08-31T15:44:58.859Z,23.40
2018-08-31T15:47:27.350Z,15.60
2018-08-31T15:49:56.006Z,19.53
2018-08-31T15:52:24.387Z,23.10
2018-08-31T15:54:52.921Z,23.17
2018-08-31T15:57:21.435Z,27.30
2018-08-31T15:59:49.949Z,19.00
2018-08-31T16:02:18.548Z,25.60
2018-08-31T16:04:47.057Z,23.40
2018-08-31T16:07:15.556Z,21.00
2018-08-31T16:09:44.089Z,21.17
2018-08-31T16:12:12.654Z,21.27
2018-08-31T16:14:41.170Z,24.43
2018-08-31T16:17:09.676Z,29.07
2018-08-31T16:19:38.180Z,26.20
2018-08-31T16:22:06.769Z,25.93
2018-08-31T16:24:35.289Z,25.27
2018-08-31T16:27:04.009Z,22.57
2018-08-31T16:29:32.547Z,25.93
2018-08-31T16:32:01.092Z,27.30
2018-08-31T16:34:29.600Z,32.07
2018-08-31T16:36:58.087Z,30.10
2018-08-31T16:39:26.613Z,26.90
2018-08-31T16:41:58.165Z,33.30
2018-08-31T16:44:26.652Z,32.73
2018-08-31T16:46:55.195Z,30.87
2018-08-31T16:49:23.711Z,29.83
2018-08-31T16:51:52.224Z,30.50
2018-08-31T16:54:20.728Z,26.33
2018-08-31T16:56:49.264Z,29.30
2018-08-31T16:59:17.795Z,23.10
2018-08-31T17:01:46.388Z,25.77
2018-08-31T17:04:15.568Z,32.83
2018-08-31T17:06:55.087Z,25.70
2018-08-31T17:09:34.114Z,22.93
2018-08-31T17:12:11.117Z,22.67
2018-08-31T17:14:51.726Z,29.63
2018-08-31T17:17:24.162Z,23.40
2018-08-31T17:19:54.511Z,26.60
2018-08-31T17:22:23.427Z,26.77
2018-08-31T17:24:52.021Z,31.70
2018-08-31T17:27:25.813Z,35.30
2018-08-31T17:29:54.408Z,26.87
2018-08-31T17:32:28.330Z,27.90
2018-08-31T17:35:02.303Z,27.00
2018-08-31T17:37:32.456Z,29.43
2018-08-31T17:40:00.975Z,30.93
2018-08-31T17:42:31.716Z,31.67
2018-08-31T17:45:00.365Z,32.90
2018-08-31T17:47:28.885Z,35.10
2018-08-31T17:49:57.444Z,28.20
2018-08-31T17:52:27.816Z,33.07
2018-08-31T17:54:56.418Z,32.70
2018-08-31T17:57:26.268Z,33.53
2018-08-31T17:59:55.200Z,33.10
2018-08-31T18:02:24.304Z,32.40
2018-08-31T18:04:53.154Z,31.77
2018-08-31T18:07:23.585Z,31.60
2018-08-31T18:09:53.072Z,34.67
2018-08-31T18:12:22.141Z,31.40
2018-08-31T18:14:50.667Z,33.03
2018-08-31T18:17:19.846Z,29.40
2018-08-31T18:19:48.719Z,35.17
2018-08-31T18:22:18.989Z,31.77
2018-08-31T18:24:47.564Z,35.00
2018-08-31T18:27:16.510Z,38.03
2018-08-31T18:29:46.226Z,41.23
2018-08-31T18:32:15.315Z,36.50
2018-08-31T18:34:44.884Z,42.90
2018-08-31T18:37:16.757Z,33.50
2018-08-31T18:39:46.656Z,35.40
2018-08-31T18:42:16.383Z,32.97
2018-08-31T18:44:45.802Z,36.43
2018-08-31T18:47:14.911Z,36.33
2018-08-31T18:49:44.558Z,38.13
2018-08-31T18:52:13.640Z,41.13
2018-08-31T18:54:43.745Z,39.27
2018-08-31T18:57:14.213Z,38.50
2018-08-31T18:59:43.213Z,43.33
2018-08-31T19:02:12.461Z,37.30
2018-08-31T19:04:41.568Z,48.90
2018-08-31T19:07:10.564Z,38.90
2018-08-31T19:09:40.350Z,37.50
2018-08-31T19:12:10.221Z,41.70
2018-08-31T19:14:43.366Z,39.17
2018-08-31T19:17:12.494Z,37.90
2018-08-31T19:19:42.316Z,37.77
2018-08-31T19:22:11.370Z,37.17
2018-08-31T19:24:41.452Z,38.73
2018-08-31T19:27:10.707Z,44.50
2018-08-31T19:29:39.242Z,42.60
2018-08-31T19:32:07.757Z,37.87
2018-08-31T19:34:36.365Z,36.33
2018-08-31T19:37:05.107Z,37.57
2018-08-31T19:39:34.458Z,38.83
2018-08-31T19:42:02.973Z,37.57
2018-08-31T19:44:31.477Z,38.00
2018-08-31T19:46:59.985Z,38.70
2018-08-31T19:49:28.544Z,33.70
2018-08-31T19:51:57.097Z,39.40
2018-08-31T19:54:25.608Z,38.87
2018-08-31T19:56:54.114Z,40.50
2018-08-31T19:59:22.589Z,44.13
2018-08-31T20:01:51.132Z,37.00
2018-08-31T20:04:19.652Z,40.80
2018-08-31T20:06:48.167Z,35.97
2018-08-31T20:09:16.715Z,40.30
2018-08-31T20:11:45.244Z,38.17
2018-08-31T20:14:13.784Z,40.03
2018-08-31T20:16:42.287Z,34.90
2018-08-31T20:19:10.847Z,34.63
2018-08-31T20:21:39.356Z,36.80
2018-08-31T20:24:07.909Z,35.23
2018-08-31T20:26:36.426Z,37.50
2018-08-31T20:29:05.059Z,41.17
2018-08-31T20:31:33.677Z,35.50
2018-08-31T20:34:02.215Z,36.90
2018-08-31T20:36:30.752Z,37.97
2018-08-31T20:38:59.328Z,40.03
2018-08-31T20:41:27.867Z,40.57
2018-08-31T20:43:56.388Z,43.40
2018-08-31T20:46:24.967Z,43.47
2018-08-31T20:48:53.495Z,43.23
2018-08-31T20:51:22.043Z,41.57
2018-08-31T20:53:50.601Z,38.60
2018-08-31T20:56:19.132Z,30.87
2018-08-31T20:58:47.665Z,34.03
2018-08-31T21:01:16.202Z,39.83
2018-08-31T21:03:44.756Z,31.97
2018-08-31T21:06:13.416Z,32.23
2018-08-31T21:08:42.017Z,35.47
2018-08-31T21:11:10.547Z,31.80
2018-08-31T21:13:39.113Z,33.13
2018-08-31T21:16:07.652Z,26.60
2018-08-31T21:18:36.188Z,26.27
2018-08-31T21:21:04.695Z,34.77
2018-08-31T21:23:33.239Z,30.27
2018-08-31T21:26:01.739Z,28.40
2018-08-31T21:28:30.260Z,28.37
2018-08-31T21:30:58.776Z,32.87
2018-08-31T21:33:27.316Z,29.53
2018-08-31T21:35:55.891Z,29.80
2018-08-31T21:38:24.403Z,29.47
2018-08-31T21:40:52.929Z,31.57
2018-08-31T21:43:21.472Z,30.37
2018-08-31T21:45:50.044Z,38.00
2018-08-31T21:48:18.586Z,30.47
2018-08-31T21:50:47.169Z,32.77
2018-08-31T21:53:15.664Z,35.57
2018-08-31T21:55:44.168Z,34.40
2018-08-31T21:58:12.820Z,28.73
2018-08-31T22:00:42.412Z,29.30
2018-08-31T22:03:11.879Z,31.43
2018-08-31T22:05:40.804Z,32.03
2018-08-31T22:08:09.351Z,30.60
2018-08-31T22:10:37.933Z,32.73
2018-08-31T22:13:06.500Z,29.13
2018-08-31T22:15:35.079Z,32.70
2018-08-31T22:18:03.669Z,29.13
2018-08-31T22:20:32.199Z,30.50
2018-08-31T22:23:00.729Z,30.13
2018-08-31T22:25:29.305Z,30.87
2018-08-31T22:27:57.800Z,28.77
2018-08-31T22:30:26.316Z,31.67
2018-08-31T22:32:54.855Z,34.00
2018-08-31T22:35:23.383Z,33.10
2018-08-31T22:37:51.880Z,31.30
2018-08-31T22:40:20.390Z,44.47
2018-08-31T22:42:48.919Z,36.07
2018-08-31T22:45:17.467Z,39.70
2018-08-31T22:47:45.959Z,35.70
2018-08-31T22:50:14.882Z,30.67
2018-08-31T22:52:43.659Z,39.10
2018-08-31T22:55:12.178Z,39.47
2018-08-31T22:57:40.709Z,34.37
2018-08-31T23:00:09.241Z,41.00
2018-08-31T23:02:37.799Z,32.80
2018-08-31T23:05:06.473Z,46.13
2018-08-31T23:07:40.413Z,32.53
2018-08-31T23:10:08.931Z,30.67
2018-08-31T23:12:37.472Z,32.17
2018-08-31T23:15:06.047Z,30.87
2018-08-31T23:17:34.576Z,31.10
2018-08-31T23:20:03.198Z,34.27
2018-08-31T23:22:31.720Z,34.90
2018-08-31T23:25:01.017Z,34.10
2018-08-31T23:27:30.300Z,35.67
2018-08-31T23:29:58.811Z,40.87
2018-08-31T23:32:27.675Z,37.37
2018-08-31T23:34:56.460Z,36.67
2018-08-31T23:37:24.980Z,40.40
2018-08-31T23:39:53.504Z,32.47
2018-08-31T23:42:22.038Z,36.73
2018-08-31T23:44:50.558Z,32.17
2018-08-31T23:47:19.119Z,38.73
2018-08-31T23:49:47.575Z,40.07
2018-08-31T23:52:16.083Z,40.20
2018-08-31T23:54:44.620Z,38.33
2018-08-31T23:57:13.167Z,40.17
2018-08-31T23:59:41.664Z,41.10
